Time;durP1;ratioP1;P1;durP2;ratioP2;P2;SDS_P1;SDS_P2;PMS_P1;PMS_P2;Temp;Humidity;BMP_temperature;BMP_pressure;BME280_temperature;BME280_humidity;BME280_pressure;Samples;Min_cycle;Max_cycle;Signal;HPM_P1;HPM_P2
2021/06/08 00:01:56;;;;;;;15.95;14.20;;;16.10;71.70;;;;;;5043640;28;20041;-70
2021/06/08 00:04:22;;;;;;;17.58;15.77;;;16.10;71.90;;;;;;5050455;28;20082;-69
2021/06/08 00:06:49;;;;;;;16.17;14.45;;;16.10;72.10;;;;;;5045389;28;20040;-70
2021/06/08 00:09:15;;;;;;;16.33;14.63;;;16.00;72.40;;;;;;5044573;28;20057;-70
2021/06/08 00:11:41;;;;;;;17.40;15.13;;;15.90;72.60;;;;;;5045754;28;20033;-71
2021/06/08 00:14:06;;;;;;;18.25;16.33;;;15.90;72.80;;;;;;5045095;28;20408;-69
2021/06/08 00:16:32;;;;;;;19.67;16.63;;;15.80;72.90;;;;;;5046246;28;20043;-70
2021/06/08 00:18:58;;;;;;;18.40;16.42;;;15.80;73.30;;;;;;5043726;28;20040;-69
2021/06/08 00:21:23;;;;;;;18.92;15.68;;;15.70;73.50;;;;;;5041297;28;20075;-69
2021/06/08 00:23:49;;;;;;;17.33;15.52;;;15.60;74.00;;;;;;5049028;28;20040;-71
2021/06/08 00:26:15;;;;;;;17.70;15.32;;;15.60;74.10;;;;;;5043383;28;20050;-69
2021/06/08 00:28:40;;;;;;;17.50;15.48;;;15.60;74.10;;;;;;5047937;28;20492;-69
2021/06/08 00:31:06;;;;;;;17.48;15.60;;;15.70;74.20;;;;;;5041486;28;20033;-69
2021/06/08 00:33:32;;;;;;;17.85;15.73;;;15.70;74.30;;;;;;5047131;28;20055;-70
2021/06/08 00:35:57;;;;;;;17.90;16.00;;;15.60;74.40;;;;;;5045636;28;20029;-70
2021/06/08 00:38:23;;;;;;;19.65;15.85;;;15.60;74.60;;;;;;5046641;28;20171;-69
2021/06/08 00:40:49;;;;;;;18.45;16.30;;;15.60;74.50;;;;;;5044195;28;20082;-70
2021/06/08 00:43:14;;;;;;;18.48;16.35;;;15.60;74.70;;;;;;5043134;28;20036;-69
2021/06/08 00:45:40;;;;;;;18.05;16.08;;;15.50;75.00;;;;;;5046787;28;20047;-69
2021/06/08 00:48:06;;;;;;;19.15;16.90;;;15.50;75.10;;;;;;5044651;28;20041;-71
2021/06/08 00:50:35;;;;;;;20.55;16.83;;;15.50;75.20;;;;;;5046604;28;20384;-69
2021/06/08 00:53:01;;;;;;;19.35;17.05;;;15.50;75.40;;;;;;5044760;28;20094;-70
2021/06/08 00:55:26;;;;;;;19.95;17.73;;;15.40;75.60;;;;;;5041474;28;20120;-70
2021/06/08 00:57:52;;;;;;;20.48;18.38;;;15.40;75.90;;;;;;5045817;28;20477;-70
2021/06/08 01:00:19;;;;;;;19.13;17.10;;;15.40;76.10;;;;;;5042834;28;20124;-69
2021/06/08 01:02:44;;;;;;;19.85;17.65;;;15.30;76.40;;;;;;5049183;28;20036;-69
2021/06/08 01:05:11;;;;;;;20.05;18.05;;;15.30;76.50;;;;;;5044014;28;20025;-71
2021/06/08 01:07:37;;;;;;;19.92;17.80;;;15.30;76.60;;;;;;5046029;28;22043;-69
2021/06/08 01:10:09;;;;;;;19.75;17.85;;;15.20;76.60;;;;;;5049304;28;20033;-70
2021/06/08 01:12:35;;;;;;;20.42;17.92;;;15.20;76.70;;;;;;5044567;28;20135;-69
2021/06/08 01:15:00;;;;;;;19.60;17.60;;;15.20;76.80;;;;;;5044915;28;20033;-69
2021/06/08 01:17:26;;;;;;;19.98;17.98;;;15.20;76.70;;;;;;5045015;28;20407;-70
2021/06/08 01:19:57;;;;;;;21.10;18.80;;;15.20;76.70;;;;;;5046325;28;20041;-69
2021/06/08 01:22:23;;;;;;;19.50;17.58;;;15.20;76.90;;;;;;5042966;28;20036;-69
2021/06/08 01:24:52;;;;;;;19.92;17.83;;;15.20;76.90;;;;;;5046598;28;20078;-70
2021/06/08 01:27:19;;;;;;;20.92;18.83;;;15.10;76.80;;;;;;5043429;28;20060;-70
2021/06/08 01:29:46;;;;;;;20.85;18.80;;;15.10;77.00;;;;;;5043721;28;20480;-69
2021/06/08 01:32:13;;;;;;;21.50;18.40;;;15.10;77.00;;;;;;5045560;28;20045;-70
2021/06/08 01:34:39;;;;;;;21.17;19.08;;;15.10;77.10;;;;;;5041717;28;20081;-70
2021/06/08 01:37:05;;;;;;;20.80;18.65;;;15.10;77.10;;;;;;5044339;28;20078;-69
2021/06/08 01:39:32;;;;;;;22.67;19.20;;;15.10;77.10;;;;;;5044783;28;20039;-70
2021/06/08 01:41:59;;;;;;;21.85;19.60;;;15.00;77.20;;;;;;5040628;28;20033;-70
2021/06/08 01:44:25;;;;;;;20.75;18.50;;;15.00;77.00;;;;;;5046268;28;20087;-70
2021/06/08 01:46:51;;;;;;;20.75;18.65;;;15.00;77.20;;;;;;5050577;28;20045;-70
2021/06/08 01:49:16;;;;;;;21.83;19.73;;;14.90;77.40;;;;;;5049448;28;20059;-70
2021/06/08 01:52:13;;;;;;;22.10;19.25;;;14.90;77.40;;;;;;5049559;28;20037;-70
2021/06/08 01:55:11;;;;;;;21.63;19.42;;;14.90;77.50;;;;;;5047768;28;20538;-69
2021/06/08 01:57:48;;;;;;;21.55;19.35;;;14.80;77.60;;;;;;5042140;28;20045;-69
2021/06/08 02:00:41;;;;;;;20.70;18.70;;;14.80;77.80;;;;;;5048322;28;20033;-69
2021/06/08 02:03:12;;;;;;;22.15;19.90;;;14.80;77.90;;;;;;5045899;28;20040;-70
2021/06/08 02:05:44;;;;;;;23.08;20.60;;;14.70;78.00;;;;;;5048133;28;20106;-69
2021/06/08 02:08:24;;;;;;;22.35;20.05;;;14.70;78.00;;;;;;5047014;28;20045;-70
2021/06/08 02:11:04;;;;;;;25.08;21.73;;;14.70;78.00;;;;;;5048466;28;20041;-70
2021/06/08 02:14:07;;;;;;;23.38;21.08;;;14.60;78.20;;;;;;5046904;28;20033;-70
2021/06/08 02:16:41;;;;;;;23.20;20.75;;;14.60;78.30;;;;;;5051186;28;20045;-69
2021/06/08 02:19:10;;;;;;;23.80;21.40;;;14.60;78.50;;;;;;5048135;28;20469;-70
2021/06/08 02:21:40;;;;;;;23.88;21.38;;;14.60;78.80;;;;;;5045964;28;20032;-71
2021/06/08 02:24:07;;;;;;;25.45;22.95;;;14.60;79.30;;;;;;5041804;28;20037;-70
2021/06/08 02:26:38;;;;;;;25.80;23.10;;;14.50;79.70;;;;;;5047552;28;20042;-69
2021/06/08 02:29:04;;;;;;;25.08;22.42;;;14.40;79.80;;;;;;5048462;28;20045;-69
2021/06/08 02:31:31;;;;;;;24.88;22.17;;;14.40;79.80;;;;;;5045683;28;20409;-69
2021/06/08 02:33:58;;;;;;;25.10;22.60;;;14.50;80.00;;;;;;5043887;28;20135;-70
2021/06/08 02:36:25;;;;;;;24.67;22.20;;;14.50;80.00;;;;;;5048640;28;20078;-70
2021/06/08 02:38:52;;;;;;;22.02;19.77;;;14.50;79.80;;;;;;5047795;28;20051;-71
2021/06/08 02:41:19;;;;;;;24.77;22.35;;;14.50;79.90;;;;;;5046857;28;20072;-70
2021/06/08 02:43:46;;;;;;;25.67;23.17;;;14.40;79.80;;;;;;5047870;28;20033;-70
2021/06/08 02:46:12;;;;;;;24.00;21.52;;;14.40;79.90;;;;;;5044502;28;20032;-70
2021/06/08 02:48:39;;;;;;;24.95;22.33;;;14.40;79.90;;;;;;5048368;28;20629;-69
2021/06/08 02:51:06;;;;;;;24.80;22.30;;;14.40;79.90;;;;;;5046281;28;20450;-69
2021/06/08 02:53:35;;;;;;;24.63;22.20;;;14.40;79.90;;;;;;5047318;28;20574;-69
2021/06/08 02:56:01;;;;;;;25.30;22.63;;;14.30;79.90;;;;;;5045403;28;20036;-70
2021/06/08 02:58:27;;;;;;;24.25;21.85;;;14.30;79.80;;;;;;5047339;28;20146;-69
2021/06/08 03:00:54;;;;;;;24.58;22.17;;;14.30;79.80;;;;;;5047586;28;20049;-70
2021/06/08 03:03:36;;;;;;;24.27;21.88;;;14.30;79.80;;;;;;5048011;28;20048;-69
2021/06/08 03:06:08;;;;;;;24.25;21.85;;;14.30;79.70;;;;;;5047063;28;20448;-69
2021/06/08 03:08:45;;;;;;;24.77;22.33;;;14.30;79.80;;;;;;5046371;28;20095;-69
2021/06/08 03:11:19;;;;;;;24.42;21.92;;;14.20;79.90;;;;;;5046465;28;20037;-70
2021/06/08 03:13:46;;;;;;;24.60;22.00;;;14.20;79.90;;;;;;5046187;28;20029;-71
2021/06/08 03:16:14;;;;;;;25.10;22.67;;;14.20;79.90;;;;;;5042380;28;20127;-70
2021/06/08 03:18:42;;;;;;;23.63;21.33;;;14.20;79.80;;;;;;5046125;28;20087;-69
2021/06/08 03:21:26;;;;;;;27.27;23.02;;;14.20;79.70;;;;;;5045397;28;20525;-69
2021/06/08 03:23:55;;;;;;;24.08;21.52;;;14.20;79.60;;;;;;5046676;28;20130;-70
2021/06/08 03:26:23;;;;;;;24.35;20.70;;;14.10;79.70;;;;;;5045171;28;20078;-69
2021/06/08 03:28:52;;;;;;;23.98;21.48;;;14.10;79.40;;;;;;5045101;28;20037;-70
2021/06/08 03:31:20;;;;;;;22.58;20.25;;;14.10;79.40;;;;;;5044097;28;20477;-68
2021/06/08 03:33:47;;;;;;;22.88;20.48;;;14.10;79.30;;;;;;5043969;28;20452;-69
2021/06/08 03:36:13;;;;;;;22.67;20.27;;;14.10;79.30;;;;;;5044117;28;20119;-69
2021/06/08 03:38:41;;;;;;;22.42;20.02;;;14.10;79.20;;;;;;5041284;28;20059;-69
2021/06/08 03:41:07;;;;;;;23.05;20.65;;;14.10;79.10;;;;;;5041618;28;20716;-69
2021/06/08 03:43:33;;;;;;;23.23;20.83;;;14.10;79.00;;;;;;5042134;28;20509;-69
2021/06/08 03:45:59;;;;;;;23.75;21.45;;;14.10;79.10;;;;;;5042723;28;20041;-72
2021/06/08 03:48:26;;;;;;;21.35;19.17;;;14.10;79.20;;;;;;5042021;28;20314;-71
2021/06/08 03:50:52;;;;;;;22.75;20.45;;;14.10;78.90;;;;;;5044125;28;20037;-70
2021/06/08 03:53:18;;;;;;;23.83;21.42;;;14.10;78.60;;;;;;5043673;28;20124;-69
2021/06/08 03:55:47;;;;;;;22.77;20.38;;;14.10;78.60;;;;;;5046262;28;20545;-69
2021/06/08 03:58:16;;;;;;;23.38;21.08;;;14.10;78.50;;;;;;5043389;28;20055;-70
2021/06/08 04:00:46;;;;;;;23.13;20.73;;;14.10;78.30;;;;;;5043275;28;20373;-69
2021/06/08 04:03:13;;;;;;;22.48;20.23;;;14.10;78.20;;;;;;5046104;28;20033;-69
2021/06/08 04:05:40;;;;;;;25.92;23.10;;;14.20;78.40;;;;;;5047615;28;20041;-69
2021/06/08 04:08:09;;;;;;;24.05;21.55;;;14.20;78.50;;;;;;5043345;28;20052;-69
2021/06/08 04:10:35;;;;;;;24.23;21.73;;;14.30;78.40;;;;;;5047338;28;20184;-72
2021/06/08 04:13:03;;;;;;;24.77;22.35;;;14.40;78.20;;;;;;5046712;28;20032;-69
2021/06/08 04:15:29;;;;;;;24.85;22.35;;;14.40;78.20;;;;;;5043922;28;20037;-70
2021/06/08 04:17:56;;;;;;;27.75;25.05;;;14.40;78.20;;;;;;5042739;28;20076;-69
2021/06/08 04:20:22;;;;;;;26.23;23.70;;;14.40;78.40;;;;;;5042485;28;20649;-70
2021/06/08 04:22:48;;;;;;;29.10;25.85;;;14.40;78.60;;;;;;5045986;28;20473;-69
2021/06/08 04:25:17;;;;;;;25.73;23.13;;;14.50;78.80;;;;;;5045427;28;20044;-71
2021/06/08 04:27:43;;;;;;;27.83;25.15;;;14.60;78.60;;;;;;5045072;28;20063;-69
2021/06/08 04:30:11;;;;;;;26.52;23.80;;;14.60;78.50;;;;;;5046060;28;20052;-69
2021/06/08 04:32:37;;;;;;;29.60;26.63;;;14.60;78.70;;;;;;5047552;28;20083;-69
2021/06/08 04:35:05;;;;;;;27.95;25.02;;;14.60;79.50;;;;;;5048195;28;20033;-69
2021/06/08 04:37:31;;;;;;;27.50;24.83;;;14.70;79.30;;;;;;5043119;28;20053;-69
2021/06/08 04:39:57;;;;;;;29.27;26.30;;;14.80;79.50;;;;;;5043692;28;20397;-70
2021/06/08 04:42:23;;;;;;;27.33;24.52;;;14.80;79.30;;;;;;5039981;28;20029;-70
2021/06/08 04:44:50;;;;;;;29.17;26.20;;;14.90;79.40;;;;;;5046670;28;20485;-70
2021/06/08 04:47:17;;;;;;;32.28;29.10;;;15.00;79.40;;;;;;5040628;28;20032;-70
2021/06/08 04:49:44;;;;;;;32.35;29.02;;;15.10;79.30;;;;;;5041063;28;20035;-68
2021/06/08 04:52:09;;;;;;;31.92;28.83;;;15.10;79.20;;;;;;5039076;28;20078;-69
2021/06/08 04:54:36;;;;;;;33.22;29.80;;;15.10;79.10;;;;;;5040763;28;20971;-68
2021/06/08 04:57:04;;;;;;;33.72;30.23;;;15.20;79.10;;;;;;5039946;28;20392;-69
2021/06/08 04:59:45;;;;;;;36.00;32.30;;;15.30;78.90;;;;;;5040208;28;20033;-69
2021/06/08 05:02:22;;;;;;;37.35;33.58;;;15.30;78.90;;;;;;5036686;28;20025;-69
2021/06/08 05:04:48;;;;;;;37.05;33.25;;;15.40;78.80;;;;;;5035677;28;20053;-68
2021/06/08 05:07:18;;;;;;;36.30;32.55;;;15.40;78.30;;;;;;5036626;28;20041;-69
2021/06/08 05:09:46;;;;;;;36.08;32.25;;;15.70;78.70;;;;;;5040512;28;20120;-69
2021/06/08 05:12:16;;;;;;;31.13;27.38;;;16.80;76.40;;;;;;5037495;28;20044;-70
2021/06/08 05:14:50;;;;;;;30.70;27.40;;;18.10;71.50;;;;;;5037152;28;20048;-69
2021/06/08 05:17:19;;;;;;;32.60;26.98;;;19.50;67.40;;;;;;5038701;28;20073;-69
2021/06/08 05:19:48;;;;;;;30.27;27.20;;;20.40;62.90;;;;;;5039474;28;20025;-71
2021/06/08 05:22:17;;;;;;;29.23;24.77;;;20.60;61.30;;;;;;5038506;28;20036;-71
2021/06/08 05:24:50;;;;;;;28.20;25.42;;;21.30;59.10;;;;;;5037263;28;20041;-71
2021/06/08 05:27:16;;;;;;;26.70;24.00;;;21.50;58.90;;;;;;5033828;28;20401;-71
2021/06/08 05:29:43;;;;;;;28.00;25.20;;;22.00;57.50;;;;;;5040640;28;20045;-70
2021/06/08 05:32:10;;;;;;;26.80;23.92;;;22.60;56.10;;;;;;5040200;28;20033;-69
2021/06/08 05:34:41;;;;;;;30.13;27.13;;;23.00;54.60;;;;;;5039767;28;20090;-70
2021/06/08 05:37:12;;;;;;;29.52;26.42;;;23.00;54.20;;;;;;5034847;28;20353;-69
2021/06/08 05:39:40;;;;;;;34.78;28.20;;;22.70;54.30;;;;;;5039048;28;20029;-72
2021/06/08 05:42:08;;;;;;;31.75;28.48;;;23.00;53.80;;;;;;5039334;28;20033;-70
2021/06/08 05:44:35;;;;;;;29.02;26.08;;;23.00;53.60;;;;;;5036701;28;20491;-70
2021/06/08 05:47:02;;;;;;;28.42;25.45;;;23.20;54.00;;;;;;5040332;28;20037;-70
2021/06/08 05:49:28;;;;;;;32.25;27.98;;;23.60;52.70;;;;;;5036613;28;20037;-69
2021/06/08 05:51:54;;;;;;;31.45;28.42;;;23.50;52.90;;;;;;5037222;28;20033;-69
2021/06/08 05:54:21;;;;;;;31.10;27.70;;;23.00;54.40;;;;;;5036078;28;20033;-71
2021/06/08 05:56:47;;;;;;;33.60;30.33;;;22.10;56.90;;;;;;5040335;28;20037;-72
2021/06/08 05:59:15;;;;;;;36.25;32.55;;;20.90;60.50;;;;;;5034979;28;20049;-70
2021/06/08 06:01:41;;;;;;;34.13;30.73;;;20.20;63.20;;;;;;5036327;28;20037;-72
2021/06/08 06:04:11;;;;;;;34.75;31.33;;;20.00;64.50;;;;;;5038809;28;20238;-69
2021/06/08 06:06:41;;;;;;;35.65;32.03;;;19.50;66.20;;;;;;5038810;28;20416;-70
2021/06/08 06:09:07;;;;;;;38.42;34.53;;;19.10;68.00;;;;;;5036548;28;20045;-71
2021/06/08 06:11:35;;;;;;;38.22;34.30;;;19.10;68.80;;;;;;5036951;28;20040;-70
2021/06/08 06:14:02;;;;;;;38.67;34.53;;;18.90;69.30;;;;;;5037163;28;20360;-71
2021/06/08 06:16:30;;;;;;;39.90;35.88;;;19.10;69.30;;;;;;5040843;28;20108;-70
2021/06/08 06:19:00;;;;;;;39.55;35.60;;;19.10;69.70;;;;;;5037283;28;20124;-72
2021/06/08 06:21:26;;;;;;;38.17;33.88;;;19.10;68.90;;;;;;5036154;28;20048;-71
2021/06/08 06:23:52;;;;;;;38.03;34.20;;;19.10;69.00;;;;;;5034769;28;20059;-71
2021/06/08 06:26:18;;;;;;;39.58;35.50;;;19.30;69.10;;;;;;5036751;28;20040;-71
2021/06/08 06:28:45;;;;;;;38.17;34.08;;;19.40;68.90;;;;;;5035183;28;20087;-73
2021/06/08 06:31:11;;;;;;;36.95;32.95;;;19.40;68.50;;;;;;5038163;28;20146;-70
2021/06/08 06:33:41;;;;;;;38.25;34.20;;;19.60;68.40;;;;;;5038796;28;20033;-71
2021/06/08 06:36:08;;;;;;;33.63;30.13;;;19.70;67.80;;;;;;5037771;28;20043;-73
2021/06/08 06:38:35;;;;;;;37.78;33.78;;;19.90;67.10;;;;;;5039021;28;20099;-71
2021/06/08 06:41:08;;;;;;;33.17;29.67;;;19.90;66.10;;;;;;5040853;28;20025;-72
2021/06/08 06:43:35;;;;;;;33.58;30.15;;;19.90;66.40;;;;;;5039688;28;20044;-70
2021/06/08 06:46:01;;;;;;;36.35;30.83;;;20.00;66.00;;;;;;5037494;28;20382;-71
2021/06/08 06:48:27;;;;;;;33.03;29.77;;;20.00;66.50;;;;;;5040539;28;20503;-69
2021/06/08 06:50:54;;;;;;;34.25;30.90;;;20.30;66.50;;;;;;5039741;28;20477;-70
2021/06/08 06:53:20;;;;;;;33.28;29.83;;;20.50;64.50;;;;;;5038382;28;20124;-72
2021/06/08 06:55:51;;;;;;;31.00;27.73;;;20.70;62.90;;;;;;5039055;28;20420;-69
2021/06/08 06:58:18;;;;;;;32.33;28.85;;;20.60;64.20;;;;;;5039030;28;20041;-72
2021/06/08 07:00:44;;;;;;;31.63;28.40;;;20.80;63.90;;;;;;5039916;28;20067;-71
2021/06/08 07:03:11;;;;;;;32.15;28.90;;;21.10;62.00;;;;;;5036260;28;20033;-73
2021/06/08 07:05:38;;;;;;;32.30;29.02;;;21.10;61.60;;;;;;5038469;28;20381;-73
2021/06/08 07:08:05;;;;;;;31.23;28.23;;;21.10;62.40;;;;;;5042180;28;20423;-71
2021/06/08 07:10:32;;;;;;;30.73;27.70;;;21.20;62.00;;;;;;5038598;28;20037;-71
2021/06/08 07:13:03;;;;;;;31.77;28.58;;;21.10;62.80;;;;;;5039743;28;20025;-71
2021/06/08 07:15:30;;;;;;;35.20;30.70;;;21.20;63.20;;;;;;5039117;28;20091;-72
2021/06/08 07:17:56;;;;;;;30.92;27.83;;;21.30;62.50;;;;;;5040598;28;20045;-70
2021/06/08 07:20:25;;;;;;;32.75;29.45;;;21.20;63.30;;;;;;5037557;28;20487;-71
2021/06/08 07:22:51;;;;;;;32.42;29.20;;;21.30;62.80;;;;;;5040017;28;20087;-69
2021/06/08 07:25:18;;;;;;;32.85;29.33;;;21.30;63.50;;;;;;5039538;28;20033;-69
2021/06/08 07:27:45;;;;;;;31.23;28.20;;;21.20;61.70;;;;;;5040880;28;20052;-70
2021/06/08 07:30:15;;;;;;;33.03;29.63;;;21.30;62.50;;;;;;5052404;28;20037;-71
2021/06/08 07:32:56;;;;;;;30.52;27.52;;;21.50;62.50;;;;;;5038847;28;20040;-70
2021/06/08 07:35:27;;;;;;;29.48;26.52;;;21.60;62.20;;;;;;5040897;28;20036;-70
2021/06/08 07:37:55;;;;;;;29.55;26.58;;;21.70;60.60;;;;;;5036958;28;20382;-73
2021/06/08 07:40:30;;;;;;;30.35;27.33;;;22.00;61.20;;;;;;5038275;28;20397;-73
2021/06/08 07:42:59;;;;;;;28.65;25.77;;;22.00;60.80;;;;;;5039809;28;20083;-67
2021/06/08 07:45:35;;;;;;;30.05;27.05;;;22.20;59.10;;;;;;5038294;28;20135;-68
2021/06/08 07:48:03;;;;;;;30.38;27.15;;;22.30;59.70;;;;;;5043996;28;20415;-69
2021/06/08 07:50:36;;;;;;;31.02;27.83;;;22.50;59.00;;;;;;5037725;28;20036;-68
2021/06/08 07:53:03;;;;;;;28.38;25.52;;;22.50;59.50;;;;;;5042430;28;20061;-70
2021/06/08 07:55:30;;;;;;;28.90;25.33;;;22.60;60.30;;;;;;5039072;28;20037;-69
2021/06/08 07:57:56;;;;;;;28.80;25.90;;;22.70;58.20;;;;;;5040660;28;20033;-71
2021/06/08 08:00:22;;;;;;;30.38;27.27;;;22.60;59.00;;;;;;5039772;28;20071;-67
2021/06/08 08:02:50;;;;;;;29.35;26.27;;;22.90;58.70;;;;;;5037558;28;20024;-70
2021/06/08 08:05:18;;;;;;;29.98;26.60;;;23.30;57.80;;;;;;5039674;28;20042;-68
2021/06/08 08:07:45;;;;;;;31.38;28.02;;;23.50;56.10;;;;;;5040808;28;20125;-68
2021/06/08 08:10:11;;;;;;;30.13;27.08;;;23.30;56.50;;;;;;5044148;28;20041;-69
2021/06/08 08:12:39;;;;;;;30.02;26.92;;;23.30;56.70;;;;;;5038183;28;20049;-67
2021/06/08 08:15:06;;;;;;;28.65;25.85;;;23.40;56.60;;;;;;5039315;28;20043;-67
2021/06/08 08:17:32;;;;;;;31.65;28.35;;;23.50;57.20;;;;;;5041764;28;20091;-70
2021/06/08 08:20:00;;;;;;;30.15;26.95;;;23.40;57.80;;;;;;5038032;28;20479;-68
2021/06/08 08:22:26;;;;;;;32.40;29.25;;;23.50;57.90;;;;;;5039879;28;20029;-70
2021/06/08 08:24:52;;;;;;;31.05;27.98;;;23.60;57.70;;;;;;5038054;28;20530;-67
2021/06/08 08:27:18;;;;;;;30.77;27.73;;;23.70;56.50;;;;;;5039438;28;20063;-67
2021/06/08 08:29:45;;;;;;;31.13;27.83;;;23.60;58.50;;;;;;5043794;28;20036;-68
2021/06/08 08:32:12;;;;;;;29.98;26.88;;;23.80;57.80;;;;;;5036780;28;20037;-69
2021/06/08 08:34:39;;;;;;;33.35;28.48;;;24.10;56.50;;;;;;5037929;28;20136;-67
2021/06/08 08:37:05;;;;;;;29.23;26.27;;;24.10;55.60;;;;;;5039881;28;20589;-68
2021/06/08 08:39:55;;;;;;;30.70;27.77;;;24.50;55.80;;;;;;4975300;28;20138;-68
2021/06/08 08:42:21;;;;;;;30.40;27.20;;;24.30;57.40;;;;;;5038894;28;20118;-69
2021/06/08 08:44:47;;;;;;;33.22;30.00;;;24.00;57.30;;;;;;5038323;28;20160;-68
2021/06/08 08:47:15;;;;;;;33.20;30.02;;;23.70;57.60;;;;;;5037622;28;20706;-67
2021/06/08 08:49:41;;;;;;;30.10;26.95;;;23.60;57.30;;;;;;5040332;28;20056;-69
2021/06/08 08:52:08;;;;;;;30.15;27.25;;;23.80;58.00;;;;;;5036759;28;20064;-67
2021/06/08 08:54:34;;;;;;;31.85;28.75;;;24.20;57.00;;;;;;5038013;28;20452;-68
2021/06/08 08:57:00;;;;;;;31.63;28.25;;;24.30;57.00;;;;;;5038372;28;20036;-68
2021/06/08 08:59:29;;;;;;;31.70;28.75;;;24.20;56.20;;;;;;5037768;28;20611;-69
2021/06/08 09:01:57;;;;;;;31.30;28.30;;;24.30;56.00;;;;;;5038990;28;20140;-69
2021/06/08 09:04:24;;;;;;;32.63;29.45;;;24.60;55.80;;;;;;5052388;28;20052;-67
2021/06/08 09:06:50;;;;;;;31.23;28.02;;;24.60;55.80;;;;;;5039516;28;20037;-70
2021/06/08 09:09:15;;;;;;;30.83;27.58;;;24.50;54.90;;;;;;5038991;28;20043;-67
2021/06/08 09:11:42;;;;;;;29.92;27.00;;;24.80;54.60;;;;;;5036671;28;20070;-68
2021/06/08 09:14:10;;;;;;;30.90;27.92;;;25.10;54.30;;;;;;5038164;28;20045;-67
2021/06/08 09:16:35;;;;;;;29.58;26.45;;;24.90;53.80;;;;;;5037742;28;20086;-67
2021/06/08 09:19:06;;;;;;;29.90;26.88;;;24.90;53.20;;;;;;5043175;28;20989;-68
2021/06/08 09:21:33;;;;;;;29.90;26.90;;;25.00;52.30;;;;;;5038403;28;20115;-67
2021/06/08 09:24:19;;;;;;;28.52;25.63;;;25.20;52.40;;;;;;5053043;28;20079;-70
2021/06/08 09:26:58;;;;;;;29.85;26.75;;;25.20;51.80;;;;;;5038702;28;20045;-70
2021/06/08 09:29:44;;;;;;;28.85;25.95;;;25.00;52.00;;;;;;5036753;28;20029;-68
2021/06/08 09:32:20;;;;;;;27.05;24.17;;;24.70;52.30;;;;;;5038279;28;20044;-69
2021/06/08 09:34:58;;;;;;;28.65;25.95;;;24.90;54.10;;;;;;5041761;28;20270;-68
2021/06/08 09:37:36;;;;;;;28.77;25.85;;;25.10;52.20;;;;;;5037356;28;20045;-67
2021/06/08 09:40:21;;;;;;;28.73;25.88;;;24.90;51.70;;;;;;5040813;28;20037;-68
2021/06/08 09:42:48;;;;;;;27.15;24.45;;;24.70;51.90;;;;;;5039228;28;20160;-67
2021/06/08 09:45:18;;;;;;;26.40;23.80;;;24.80;51.80;;;;;;5032735;28;20044;-70
2021/06/08 09:47:44;;;;;;;28.25;25.25;;;25.00;49.80;;;;;;5038584;28;20043;-67
2021/06/08 09:50:37;;;;;;;28.05;25.40;;;24.60;51.10;;;;;;5037729;28;20041;-69
2021/06/08 09:53:24;;;;;;;26.23;23.73;;;24.80;51.90;;;;;;5037348;28;20075;-70
2021/06/08 09:56:04;;;;;;;30.08;25.98;;;24.90;51.50;;;;;;5037470;28;20107;-68
2021/06/08 09:58:31;;;;;;;29.27;26.40;;;25.10;51.70;;;;;;5036219;28;20045;-71
2021/06/08 10:01:21;;;;;;;29.85;25.75;;;25.40;50.40;;;;;;5041025;28;20029;-68
2021/06/08 10:04:04;;;;;;;27.85;24.95;;;25.10;50.30;;;;;;5036096;28;20049;-67
2021/06/08 10:06:38;;;;;;;26.58;23.77;;;25.30;50.50;;;;;;5040001;28;20037;-68
2021/06/08 10:09:11;;;;;;;25.58;22.88;;;25.60;50.00;;;;;;5042527;28;20033;-68
2021/06/08 10:11:39;;;;;;;27.33;24.50;;;25.90;50.00;;;;;;5042802;28;20378;-67
2021/06/08 10:14:14;;;;;;;24.48;21.77;;;25.80;49.70;;;;;;5038553;28;20076;-67
2021/06/08 10:16:41;;;;;;;24.52;21.92;;;25.60;48.40;;;;;;5038486;28;20037;-69
2021/06/08 10:19:07;;;;;;;22.58;20.08;;;25.90;49.80;;;;;;5046356;28;20473;-68
2021/06/08 10:21:45;;;;;;;21.73;19.52;;;26.10;47.00;;;;;;5044155;28;20037;-68
2021/06/08 10:24:14;;;;;;;23.77;21.27;;;26.40;45.80;;;;;;5037434;28;20350;-68
2021/06/08 10:26:45;;;;;;;19.33;17.45;;;26.40;45.10;;;;;;5041216;28;20111;-68
2021/06/08 10:29:11;;;;;;;25.73;22.83;;;26.50;43.50;;;;;;5051748;28;20458;-69
2021/06/08 10:31:39;;;;;;;29.95;27.13;;;26.70;46.10;;;;;;5043123;28;20452;-68
2021/06/08 10:34:07;;;;;;;26.42;23.83;;;26.10;49.20;;;;;;5037055;28;20080;-70
2021/06/08 10:36:36;;;;;;;24.63;22.23;;;26.40;48.30;;;;;;5039558;28;20052;-69
2021/06/08 10:39:11;;;;;;;25.52;22.25;;;26.80;46.10;;;;;;5038150;28;20053;-70
2021/06/08 10:41:39;;;;;;;22.75;20.67;;;27.20;45.80;;;;;;5040945;28;20032;-68
2021/06/08 10:44:05;;;;;;;23.52;21.15;;;27.20;44.70;;;;;;5039369;28;20191;-67
2021/06/08 10:46:44;;;;;;;25.50;22.88;;;27.40;43.30;;;;;;5038790;28;20032;-68
2021/06/08 10:49:10;;;;;;;23.73;21.42;;;27.20;45.10;;;;;;5040204;28;20040;-68
2021/06/08 10:51:37;;;;;;;22.33;20.20;;;27.10;44.80;;;;;;5040962;28;20037;-68
2021/06/08 10:54:16;;;;;;;26.23;23.42;;;26.40;46.10;;;;;;5038270;28;20037;-70
2021/06/08 10:56:59;;;;;;;24.23;21.80;;;25.50;46.10;;;;;;5039296;28;20096;-67
2021/06/08 10:59:45;;;;;;;23.83;21.38;;;25.20;47.70;;;;;;5038717;28;20151;-69
2021/06/08 11:02:13;;;;;;;24.92;22.50;;;25.30;47.10;;;;;;5041636;28;20037;-69
2021/06/08 11:04:52;;;;;;;23.02;20.63;;;25.30;47.00;;;;;;5037801;28;20045;-68
2021/06/08 11:07:42;;;;;;;23.40;21.05;;;25.40;47.30;;;;;;5037910;28;20059;-70
2021/06/08 11:10:29;;;;;;;21.55;19.35;;;25.80;46.70;;;;;;5051774;28;20173;-68
2021/06/08 11:13:12;;;;;;;23.52;20.58;;;26.30;46.00;;;;;;5042804;28;20033;-67
2021/06/08 11:15:46;;;;;;;23.35;20.88;;;26.30;44.80;;;;;;5042659;28;20628;-69
2021/06/08 11:18:21;;;;;;;23.05;20.77;;;26.60;43.90;;;;;;5037737;28;20430;-70
2021/06/08 11:20:49;;;;;;;23.50;21.15;;;26.50;43.10;;;;;;5039452;28;20040;-68
2021/06/08 11:23:44;;;;;;;23.05;20.75;;;26.50;42.60;;;;;;5037717;28;20188;-66
2021/06/08 11:26:11;;;;;;;18.42;16.58;;;26.50;42.20;;;;;;5036751;28;20037;-70
2021/06/08 11:28:45;;;;;;;18.90;15.98;;;27.20;42.40;;;;;;5037774;28;20495;-68
2021/06/08 11:31:13;;;;;;;17.48;15.43;;;27.40;37.80;;;;;;5037854;28;20122;-67
2021/06/08 11:33:42;;;;;;;17.17;15.38;;;27.50;38.00;;;;;;5038165;28;20367;-67
2021/06/08 11:36:21;;;;;;;16.02;14.02;;;27.40;37.30;;;;;;5038161;28;20435;-68
2021/06/08 11:38:49;;;;;;;20.45;18.30;;;27.40;39.20;;;;;;5041745;28;20084;-71
2021/06/08 11:41:17;;;;;;;22.33;20.02;;;27.60;41.60;;;;;;5036286;28;20388;-70
2021/06/08 11:43:54;;;;;;;21.02;18.80;;;27.60;41.20;;;;;;5038082;28;20041;-70
2021/06/08 11:46:29;;;;;;;22.88;20.00;;;27.90;41.30;;;;;;5038881;28;20041;-67
2021/06/08 11:49:13;;;;;;;20.83;18.73;;;28.20;40.30;;;;;;5036534;28;20040;-67
2021/06/08 11:51:50;;;;;;;20.98;18.95;;;28.20;40.60;;;;;;5036069;28;20063;-67
2021/06/08 11:54:25;;;;;;;19.48;17.48;;;28.10;40.80;;;;;;5036627;28;21689;-70
2021/06/08 11:56:52;;;;;;;15.68;13.77;;;27.80;39.00;;;;;;5034944;28;20041;-68
2021/06/08 11:59:26;;;;;;;19.67;17.65;;;28.00;39.10;;;;;;5036333;28;20040;-68
2021/06/08 12:02:00;;;;;;;18.92;16.92;;;27.90;38.00;;;;;;5038639;28;20036;-68
2021/06/08 12:04:28;;;;;;;18.67;16.67;;;28.00;38.30;;;;;;5031726;28;20477;-67
2021/06/08 12:06:56;;;;;;;16.70;14.98;;;28.20;38.60;;;;;;5039253;28;20119;-67
2021/06/08 12:09:23;;;;;;;17.23;15.35;;;28.30;37.20;;;;;;5038151;28;20480;-69
2021/06/08 12:11:51;;;;;;;20.23;18.13;;;28.40;38.50;;;;;;5038414;28;20052;-69
2021/06/08 12:14:19;;;;;;;19.08;17.13;;;28.60;38.00;;;;;;5039319;28;20040;-69
2021/06/08 12:16:49;;;;;;;20.27;18.15;;;28.70;36.80;;;;;;5036520;28;20025;-67
2021/06/08 12:19:15;;;;;;;19.90;17.90;;;28.20;40.50;;;;;;5037220;28;20061;-68
2021/06/08 12:21:44;;;;;;;23.70;20.48;;;28.10;39.50;;;;;;5041782;28;20069;-67
2021/06/08 12:24:16;;;;;;;18.70;16.80;;;28.50;38.60;;;;;;5038764;28;20041;-67
2021/06/08 12:27:00;;;;;;;18.90;16.90;;;28.80;39.90;;;;;;5039492;28;20071;-67
2021/06/08 12:29:27;;;;;;;19.27;17.13;;;29.00;37.40;;;;;;5036532;28;20345;-67
2021/06/08 12:31:55;;;;;;;17.40;15.60;;;29.10;38.30;;;;;;5039230;28;20474;-68
2021/06/08 12:34:23;;;;;;;15.82;14.10;;;29.10;36.30;;;;;;5038196;28;21204;-68
2021/06/08 12:36:49;;;;;;;16.45;14.75;;;29.30;36.60;;;;;;5036758;28;20040;-68
2021/06/08 12:39:17;;;;;;;18.10;16.20;;;29.50;36.70;;;;;;5039828;28;20033;-67
2021/06/08 12:41:44;;;;;;;20.63;18.63;;;29.10;36.40;;;;;;5039289;28;21572;-66